Time;durP1;ratioP1;P1;durP2;ratioP2;P2;SDS_P1;SDS_P2;PMS_P1;PMS_P2;Temp;Humidity;BMP_temperature;BMP_pressure;BME280_temperature;BME280_humidity;BME280_pressure;Samples;Min_cycle;Max_cycle;Signal;HPM_P1;HPM_P2
2022/06/12 00:01:14;;;;;;;5.13;4.00;;;;;;;18.27;66.25;100485.52;1460659;89;21538;-88
2022/06/12 00:03:41;;;;;;;3.97;3.00;;;;;;;18.27;66.23;100484.19;1418415;91;21562;-87
2022/06/12 00:06:09;;;;;;;8.27;3.03;;;;;;;18.29;66.15;100492.01;1465996;88;22651;-88
2022/06/12 00:08:38;;;;;;;4.60;3.30;;;;;;;18.32;65.96;100492.95;1475009;88;21485;-88
2022/06/12 00:11:08;;;;;;;4.67;3.60;;;;;;;18.33;65.52;100486.07;1466614;88;21500;-88
2022/06/12 00:13:52;;;;;;;10.65;3.83;;;;;;;18.34;65.61;100497.09;1466805;87;22368;-88
2022/06/12 00:16:20;;;;;;;8.40;3.43;;;;;;;18.34;65.28;100491.73;1468429;88;22484;-89
2022/06/12 00:18:46;;;;;;;4.13;3.47;;;;;;;18.34;65.35;100486.89;1468131;87;21540;-88
2022/06/12 00:21:14;;;;;;;5.80;3.00;;;;;;;18.32;65.19;100481.72;1472656;87;21487;-88
2022/06/12 00:23:54;;;;;;;6.17;2.93;;;;;;;18.30;65.51;100479.77;1448903;88;21633;-88
2022/06/12 00:26:29;;;;;;;5.83;3.20;;;;;;;18.28;65.31;100479.65;1462569;87;21518;-89
2022/06/12 00:28:59;;;;;;;12.07;3.97;;;;;;;18.27;65.11;100485.52;1465579;87;21810;-88
2022/06/12 00:31:27;;;;;;;5.87;3.75;;;;;;;18.32;64.94;100488.41;1470745;87;21533;-87
2022/06/12 00:33:54;;;;;;;6.70;3.40;;;;;;;18.32;65.25;100489.75;1474715;87;21573;-87
2022/06/12 00:36:20;;;;;;;4.50;2.90;;;;;;;18.30;64.87;100493.16;1464911;87;21457;-89
2022/06/12 00:38:46;;;;;;;6.43;3.00;;;;;;;18.28;64.90;100485.83;1463999;88;21448;-87
2022/06/12 00:41:12;;;;;;;4.23;3.07;;;;;;;18.27;64.90;100485.52;1439579;88;21481;-89
2022/06/12 00:43:39;;;;;;;3.53;3.23;;;;;;;18.22;64.98;100476.72;1448586;88;22010;-87
2022/06/12 00:46:06;;;;;;;8.53;3.13;;;;;;;18.19;65.37;100477.64;1456367;86;22411;-89
2022/06/12 00:48:38;;;;;;;5.67;3.10;;;;;;;18.13;65.52;100473.89;1457862;88;21478;-88
2022/06/12 00:51:15;;;;;;;5.90;2.73;;;;;;;18.11;65.66;100477.78;1454710;88;21562;-88
2022/06/12 00:53:49;;;;;;;9.93;3.20;;;;;;;18.07;66.08;100480.52;1474156;87;22744;-87
2022/06/12 00:56:24;;;;;;;4.07;2.87;;;;;;;18.05;65.90;100472.70;1456553;88;21556;-87
2022/06/12 00:59:02;;;;;;;6.80;3.67;;;;;;;18.04;65.55;100473.21;1445967;88;21654;-88
2022/06/12 01:01:34;;;;;;;3.03;2.63;;;;;;;17.99;65.83;100475.64;1461726;88;21717;-90
2022/06/12 01:06:49;;;;;;;6.53;3.57;;;;;;;17.89;66.13;100473.80;1472422;87;22299;-87
2022/06/12 01:09:22;;;;;;;4.62;2.70;;;;;;;17.88;65.98;100476.17;1457471;87;21493;-88
2022/06/12 01:11:51;;;;;;;3.33;2.97;;;;;;;17.80;66.49;100473.11;1478889;87;21636;-87
2022/06/12 01:14:21;;;;;;;5.87;2.83;;;;;;;17.77;66.24;100477.48;1455475;87;21577;-88
2022/06/12 01:16:49;;;;;;;5.20;2.72;;;;;;;17.79;66.24;100473.33;1459652;88;21488;-87
2022/06/12 01:19:27;;;;;;;6.60;3.07;;;;;;;17.78;66.23;100478.34;1458609;88;21488;-87
2022/06/12 01:22:20;;;;;;;8.07;3.27;;;;;;;17.75;66.22;100472.86;1466450;88;21648;-86
2022/06/12 01:25:21;;;;;;;4.80;3.17;;;;;;;17.73;66.21;100470.05;1474412;87;22426;-88
2022/06/12 01:28:10;;;;;;;7.17;3.40;;;;;;;17.70;66.10;100471.27;1471605;88;22403;-89
2022/06/12 01:30:51;;;;;;;7.30;3.50;;;;;;;17.71;65.96;100470.75;1462688;88;21517;-87
2022/06/12 01:33:37;;;;;;;3.87;2.77;;;;;;;17.71;65.58;100470.75;1466241;88;23462;-89
2022/06/12 01:36:15;;;;;;;5.33;3.00;;;;;;;17.63;65.72;100469.55;1465530;88;22025;-87
2022/06/12 01:39:16;;;;;;;5.20;2.90;;;;;;;17.66;66.61;100465.96;1461286;88;21481;-86
2022/06/12 01:41:59;;;;;;;3.70;2.47;;;;;;;17.64;66.15;100466.69;1461710;88;23315;-88
2022/06/12 01:45:10;;;;;;;4.50;3.00;;;;;;;17.60;65.91;100468.89;1465854;88;22206;-90
2022/06/12 01:48:00;;;;;;;7.30;2.93;;;;;;;17.60;66.20;100470.23;1464981;88;21654;-90
2022/06/12 01:50:34;;;;;;;7.20;3.90;;;;;;;17.57;66.10;100473.81;1465212;88;21538;-89
2022/06/12 01:53:29;;;;;;;5.80;2.70;;;;;;;17.52;66.17;100469.06;1453211;87;21611;-88
2022/06/12 01:56:03;;;;;;;4.47;3.07;;;;;;;17.49;66.10;100480.14;1464331;87;22507;-87
2022/06/12 01:58:37;;;;;;;3.23;2.93;;;;;;;17.45;66.41;100473.50;1468617;87;21458;-89
2022/06/12 02:01:12;;;;;;;6.70;2.90;;;;;;;17.43;66.36;100471.52;1475106;88;21510;-89
2022/06/12 02:04:04;;;;;;;4.23;3.37;;;;;;;17.37;66.48;100478.45;1477295;86;21576;-88
2022/06/12 02:06:44;;;;;;;5.40;3.07;;;;;;;17.39;66.39;100478.80;1472100;87;23904;-88
2022/06/12 02:09:16;;;;;;;4.37;2.77;;;;;;;17.39;66.35;100481.47;1459949;86;21518;-89
2022/06/12 02:14:43;;;;;;;8.18;3.95;;;;;;;17.29;66.41;100485.30;1449806;88;21666;-89
2022/06/12 02:17:15;;;;;;;5.50;3.40;;;;;;;17.25;67.20;100479.99;1470088;88;21504;-88
2022/06/12 02:19:44;;;;;;;4.80;2.40;;;;;;;17.23;66.65;100483.35;1459058;88;21518;-88
2022/06/12 02:22:27;;;;;;;3.57;2.97;;;;;;;17.24;66.63;100482.36;1448991;88;21474;-88
2022/06/12 02:25:01;;;;;;;6.70;3.03;;;;;;;17.25;66.56;100486.67;1470778;88;21592;-87
2022/06/12 02:27:33;;;;;;;6.00;3.43;;;;;;;17.23;66.45;100480.68;1446662;87;22558;-87
2022/06/12 02:30:13;;;;;;;4.43;2.73;;;;;;;17.24;66.16;100484.20;1449391;88;21621;-87
2022/06/12 02:32:57;;;;;;;3.72;2.35;;;;;;;17.24;65.88;100478.86;1479092;87;21603;-87
2022/06/12 02:35:50;;;;;;;4.83;2.60;;;;;;;17.23;65.76;100481.20;1469458;87;23000;-87
2022/06/12 02:38:38;;;;;;;6.60;3.30;;;;;;;17.22;65.61;100483.56;1458666;87;22354;-88
2022/06/12 02:41:12;;;;;;;4.97;2.70;;;;;;;17.19;65.90;100483.42;1468939;88;21607;-86
2022/06/12 02:43:43;;;;;;;4.20;3.10;;;;;;;17.19;65.79;100478.08;1468022;87;21525;-85
2022/06/12 02:46:33;;;;;;;9.60;3.83;;;;;;;17.17;65.78;100475.27;1461152;87;21538;-89
2022/06/12 02:48:59;;;;;;;8.45;3.33;;;;;;;17.14;65.88;100481.31;1468620;87;21488;-88
2022/06/12 02:51:55;;;;;;;8.23;2.70;;;;;;;17.16;65.74;100481.13;1467814;87;21665;-87
2022/06/12 02:54:36;;;;;;;7.23;3.07;;;;;;;17.12;66.07;100489.23;1473727;87;21545;-85
2022/06/12 02:57:08;;;;;;;;;;;;;;;17.08;66.20;100482.58;1466900;87;22479;-89
2022/06/12 02:59:55;;;;;;;11.80;3.93;;;;;;;17.03;66.20;100491.19;1447677;88;20418;-88
2022/06/12 03:02:35;;;;;;;3.47;2.67;;;;;;;17.02;66.18;100489.51;1460350;88;21929;-88
2022/06/12 03:05:32;;;;;;;3.15;2.72;;;;;;;17.02;66.09;100481.48;1475257;87;22471;-87
2022/06/12 03:08:03;;;;;;;5.20;2.80;;;;;;;17.02;66.09;100481.48;1463650;87;22620;-87
2022/06/12 03:10:41;;;;;;;4.53;2.93;;;;;;;17.09;65.84;100493.59;1474037;87;22394;-88
2022/06/12 03:13:10;;;;;;;8.53;2.50;;;;;;;17.07;66.08;100491.63;1459772;88;21576;-87
2022/06/12 03:15:48;;;;;;;6.50;3.00;;;;;;;17.04;66.16;100493.34;1442380;88;21508;-87
2022/06/12 03:18:19;;;;;;;2.90;2.60;;;;;;;17.08;66.09;100491.42;1457703;88;21547;-88
2022/06/12 03:21:12;;;;;;;6.13;3.30;;;;;;;17.08;65.98;100497.28;1444308;88;21539;-87
2022/06/12 03:24:05;;;;;;;5.07;2.93;;;;;;;17.09;65.83;100493.11;1474819;88;21582;-89
2022/06/12 03:26:43;;;;;;;3.83;2.70;;;;;;;17.11;65.84;100493.72;1464725;87;21530;-86
2022/06/12 03:29:26;;;;;;;5.50;2.30;;;;;;;17.17;65.57;100493.98;1456568;88;21496;-88
2022/06/12 03:32:07;;;;;;;4.17;2.83;;;;;;;17.16;64.85;100492.34;1462345;88;21567;-87
2022/06/12 03:34:55;;;;;;;6.25;3.08;;;;;;;17.23;65.23;100495.91;1437350;88;21562;-86
2022/06/12 03:37:32;;;;;;;4.50;3.13;;;;;;;17.25;65.22;100501.91;1455802;88;22513;-89
2022/06/12 03:40:40;;;;;;;2.93;2.17;;;;;;;17.29;65.45;100508.03;1452435;88;21482;-87
2022/06/12 03:43:17;;;;;;;4.93;2.93;;;;;;;17.30;64.87;100502.17;1458623;88;21769;-86
2022/06/12 03:45:58;;;;;;;6.83;2.83;;;;;;;17.34;64.80;100496.75;1461436;87;21466;-88
2022/06/12 03:48:40;;;;;;;4.93;2.63;;;;;;;17.39;64.82;100502.36;1452174;88;21526;-90
2022/06/12 03:51:27;;;;;;;4.63;2.50;;;;;;;17.44;64.66;100507.98;1450862;88;21473;-87
2022/06/12 03:54:27;;;;;;;3.40;2.50;;;;;;;17.52;64.47;100514.55;1457730;88;21673;-90
2022/06/12 04:00:07;;;;;;;4.33;2.40;;;;;;;17.63;64.41;100513.19;1461667;88;21611;-89
2022/06/12 04:02:35;;;;;;;10.65;3.92;;;;;;;17.67;63.85;100508.30;1446338;88;21518;-89
2022/06/12 04:05:04;;;;;;;4.43;2.70;;;;;;;17.71;64.18;100511.72;1450193;88;21523;-89
2022/06/12 04:07:33;;;;;;;13.07;2.83;;;;;;;17.76;64.25;100520.52;1452322;86;22401;-89
2022/06/12 04:10:02;;;;;;;9.67;2.83;;;;;;;17.77;63.93;100520.83;1456716;87;21530;-90
2022/06/12 04:12:32;;;;;;;2.37;2.00;;;;;;;17.82;63.58;100523.80;1453903;88;21552;-86
2022/06/12 04:15:20;;;;;;;7.28;2.95;;;;;;;17.89;63.78;100515.81;1448963;88;22626;-87
2022/06/12 04:17:46;;;;;;;4.67;3.10;;;;;;;17.92;63.74;100521.60;1452192;87;21500;-86
2022/06/12 04:20:24;;;;;;;2.60;2.20;;;;;;;17.97;63.62;100523.20;1486494;86;21412;-92
2022/06/12 04:23:04;;;;;;;9.63;2.90;;;;;;;18.02;63.17;100522.11;1478486;87;21570;-91
2022/06/12 04:25:42;;;;;;;4.78;2.22;;;;;;;18.10;63.42;100526.51;1482949;87;22112;-91
2022/06/12 04:28:35;;;;;;;7.90;2.70;;;;;;;18.20;63.46;100525.64;1456636;88;21473;-90
2022/06/12 04:31:07;;;;;;;7.33;2.67;;;;;;;18.27;62.88;100524.37;1466489;88;21473;-91
2022/06/12 04:33:41;;;;;;;4.27;1.97;;;;;;;18.35;62.67;100522.03;1472930;87;22331;-92
2022/06/12 04:36:09;;;;;;;4.47;2.80;;;;;;;18.37;62.47;100528.03;1457789;87;21429;-93
2022/06/12 04:38:37;;;;;;;4.07;2.30;;;;;;;18.44;62.52;100517.67;1449178;87;21485;-92
2022/06/12 04:41:06;;;;;;;4.23;2.73;;;;;;;18.52;62.00;100523.89;1472932;87;21605;-88
2022/06/12 04:43:33;;;;;;;5.87;2.93;;;;;;;18.60;62.38;100527.76;1466705;87;22465;-91
2022/06/12 04:45:59;;;;;;;4.90;2.30;;;;;;;18.66;62.51;100529.64;1458280;88;21583;-91
2022/06/12 04:48:36;;;;;;;3.97;2.07;;;;;;;18.73;61.62;100538.56;1428633;89;22983;-91
2022/06/12 04:51:05;;;;;;;3.40;2.52;;;;;;;18.79;61.34;100535.11;1452108;88;21581;-91
2022/06/12 04:53:32;;;;;;;5.73;2.63;;;;;;;18.86;60.98;100539.16;1474864;87;21479;-93
2022/06/12 04:55:58;;;;;;;2.57;2.13;;;;;;;18.93;61.08;100540.00;1478603;87;21477;-93
2022/06/12 04:58:24;;;;;;;7.80;2.52;;;;;;;18.99;60.72;100546.42;1466192;87;21577;-92
2022/06/12 05:00:51;;;;;;;4.20;2.77;;;;;;;19.05;61.00;100544.31;1473903;88;21595;-91
2022/06/12 05:03:17;;;;;;;3.12;2.25;;;;;;;19.14;60.92;100543.92;1469052;88;23644;-92
2022/06/12 05:05:43;;;;;;;3.17;2.72;;;;;;;19.21;60.34;100553.33;1453919;88;21489;-91
2022/06/12 05:08:11;;;;;;;3.42;2.70;;;;;;;19.26;60.37;100556.23;1456043;88;21479;-91
2022/06/12 05:10:37;;;;;;;4.00;2.50;;;;;;;19.36;60.48;100559.37;1455288;88;21443;-92
2022/06/12 05:13:03;;;;;;;7.17;2.55;;;;;;;19.42;60.13;100552.37;1463545;88;22410;-90
2022/06/12 05:15:30;;;;;;;3.55;2.40;;;;;;;19.49;59.35;100549.18;1449952;88;21632;-92
2022/06/12 05:17:56;;;;;;;6.28;2.47;;;;;;;19.54;59.08;100554.78;1462081;87;21575;-92
2022/06/12 05:20:28;;;;;;;9.90;2.55;;;;;;;19.56;58.78;100551.88;1460262;88;22477;-93
2022/06/12 05:22:55;;;;;;;4.15;2.20;;;;;;;19.64;58.84;100551.69;1452534;88;21673;-90
2022/06/12 05:25:23;;;;;;;4.53;2.55;;;;;;;19.69;58.37;100551.94;1451442;88;21603;-89
2022/06/12 05:27:51;;;;;;;4.58;2.17;;;;;;;19.76;58.60;100562.16;1457125;88;22456;-88
2022/06/12 05:30:23;;;;;;;9.68;2.42;;;;;;;19.84;58.17;100564.65;1450683;88;21637;-90
2022/06/12 05:32:52;;;;;;;3.58;1.98;;;;;;;19.95;58.85;100549.79;1467868;87;21523;-88
2022/06/12 05:35:21;;;;;;;5.20;2.12;;;;;;;20.09;58.78;100563.23;1469617;87;21656;-92
2022/06/12 05:37:49;;;;;;;3.90;2.47;;;;;;;20.10;57.20;100560.84;1469532;87;21508;-90
2022/06/12 05:40:20;;;;;;;5.03;1.95;;;;;;;20.13;57.53;100561.77;1457936;88;21560;-91
2022/06/12 05:42:47;;;;;;;7.50;2.33;;;;;;;20.19;57.54;100567.14;1458768;88;22364;-90
2022/06/12 05:45:18;;;;;;;6.30;2.50;;;;;;;20.26;57.65;100565.29;1467477;88;21480;-92
2022/06/12 05:47:53;;;;;;;4.10;2.08;;;;;;;20.37;57.63;100567.02;1469397;88;21544;-89
2022/06/12 05:50:24;;;;;;;20.60;3.45;;;;;;;20.45;56.48;100569.50;1470266;88;21473;-87
2022/06/12 05:52:50;;;;;;;;;;;;;;;20.51;56.19;100571.34;1471997;87;21585;-88
2022/06/12 05:55:17;;;;;;;4.62;2.37;;;;;;;20.58;56.27;100577.59;1464369;87;20527;-87
2022/06/12 05:57:43;;;;;;;3.12;2.20;;;;;;;20.72;57.06;100575.18;1471720;87;22477;-87
2022/06/12 06:00:15;;;;;;;2.42;2.22;;;;;;;20.78;56.45;100574.03;1464901;87;21554;-85
2022/06/12 06:02:43;;;;;;;4.47;2.37;;;;;;;20.86;55.36;100584.53;1470578;88;21692;-86
2022/06/12 06:05:12;;;;;;;3.12;2.02;;;;;;;20.88;54.92;100586.50;1457431;88;22506;-87
2022/06/12 06:07:39;;;;;;;2.92;2.08;;;;;;;20.94;55.50;100581.62;1456357;88;22448;-86
2022/06/12 06:10:10;;;;;;;7.28;2.92;;;;;;;20.93;53.94;100579.98;1452201;88;21473;-87
2022/06/12 06:12:37;;;;;;;7.28;1.90;;;;;;;21.10;55.72;100577.65;1468041;88;21515;-88
2022/06/12 06:15:04;;;;;;;6.47;2.52;;;;;;;21.22;55.25;100583.19;1456136;88;21566;-87
2022/06/12 06:17:30;;;;;;;9.28;2.70;;;;;;;21.12;53.86;100580.44;1462067;87;21500;-87
2022/06/12 06:19:56;;;;;;;3.42;2.05;;;;;;;21.22;54.40;100581.84;1462498;88;21507;-84
2022/06/12 06:22:22;;;;;;;3.72;1.98;;;;;;;21.18;53.97;100583.61;1470834;88;21622;-85
2022/06/12 06:24:49;;;;;;;6.65;2.40;;;;;;;21.26;54.05;100585.25;1447025;88;21486;-84
2022/06/12 06:27:15;;;;;;;2.90;2.00;;;;;;;21.39;54.24;100588.41;1458954;88;21548;-84
2022/06/12 06:29:43;;;;;;;8.03;1.80;;;;;;;21.53;54.81;100585.95;1455903;87;21529;-86
2022/06/12 06:32:11;;;;;;;7.30;3.17;;;;;;;21.71;53.96;100587.09;1463904;87;21545;-85
2022/06/12 06:34:40;;;;;;;2.02;1.80;;;;;;;21.80;53.17;100593.34;1493231;87;21678;-86
2022/06/12 06:37:10;;;;;;;5.92;2.00;;;;;;;21.83;52.32;100588.05;1449551;88;22491;-85
2022/06/12 06:39:38;;;;;;;4.42;2.52;;;;;;;21.95;53.49;100590.86;1478787;88;21486;-87
2022/06/12 06:42:07;;;;;;;2.50;1.77;;;;;;;22.01;52.21;100584.59;1474568;87;21515;-90
2022/06/12 06:47:19;;;;;;;3.62;1.95;;;;;;;21.98;51.45;100588.58;1473036;87;22384;-87
2022/06/12 06:49:45;;;;;;;3.72;2.00;;;;;;;22.10;52.00;100588.69;1469215;87;21605;-88
2022/06/12 06:52:11;;;;;;;7.40;1.77;;;;;;;22.10;52.00;100588.69;1441545;88;21618;-90
2022/06/12 06:54:37;;;;;;;7.08;1.95;;;;;;;22.07;51.64;100587.26;1421500;90;22352;-90
2022/06/12 06:57:06;;;;;;;2.90;1.77;;;;;;;22.06;50.75;100584.23;1441208;90;21443;-90
2022/06/12 06:59:33;;;;;;;3.25;1.55;;;;;;;22.23;52.15;100593.98;1434433;90;22025;-89
2022/06/12 07:01:59;;;;;;;3.10;1.90;;;;;;;22.25;50.72;100594.59;1477697;86;22403;-88
2022/06/12 07:04:25;;;;;;;3.58;1.87;;;;;;;22.33;50.55;100589.96;1478086;87;21488;-88
2022/06/12 07:06:54;;;;;;;2.87;1.72;;;;;;;22.32;50.33;100591.84;1455973;87;21699;-89
2022/06/12 07:09:21;;;;;;;3.27;1.85;;;;;;;22.42;51.47;100585.44;1465170;88;21496;-89
2022/06/12 07:11:47;;;;;;;2.45;2.12;;;;;;;22.53;51.53;100581.19;1468813;88;21662;-88
2022/06/12 07:14:13;;;;;;;3.45;1.70;;;;;;;22.69;51.43;100578.42;1463874;88;22656;-90
2022/06/12 07:16:40;;;;;;;6.25;2.10;;;;;;;22.75;50.39;100585.61;1476679;87;21554;-87
2022/06/12 07:19:08;;;;;;;3.20;1.87;;;;;;;22.74;49.43;100582.09;1457832;88;22092;-91
2022/06/12 07:21:36;;;;;;;5.03;1.92;;;;;;;22.76;48.87;100589.98;1474048;87;21500;-91
2022/06/12 07:24:02;;;;;;;7.25;1.77;;;;;;;22.71;48.94;100585.77;1464386;87;21607;-88
2022/06/12 07:26:37;;;;;;;7.60;2.80;;;;;;;22.92;49.76;100587.20;1468309;88;21575;-88
2022/06/12 07:29:05;;;;;;;2.33;1.95;;;;;;;23.13;49.96;100587.28;1403700;90;21477;-87
2022/06/12 07:31:31;;;;;;;3.27;2.02;;;;;;;23.25;49.40;100578.73;1453540;88;21503;-87
2022/06/12 07:33:58;;;;;;;6.30;2.10;;;;;;;23.27;49.13;100586.06;1469648;86;21618;-88
2022/06/12 07:36:26;;;;;;;3.15;1.87;;;;;;;23.38;49.08;100582.59;1463794;88;21471;-88
2022/06/12 07:38:53;;;;;;;5.58;1.92;;;;;;;23.55;48.53;100581.44;1465581;88;21515;-87
2022/06/12 07:41:20;;;;;;;2.65;1.87;;;;;;;23.39;47.94;100580.22;1465944;88;21495;-89
2022/06/12 07:43:47;;;;;;;3.00;1.40;;;;;;;23.45;47.36;100578.98;1453473;88;21552;-86
2022/06/12 07:46:18;;;;;;;4.72;1.70;;;;;;;23.57;48.33;100577.17;1462503;87;22449;-90
2022/06/12 07:48:47;;;;;;;2.40;1.72;;;;;;;23.55;46.18;100581.97;1468600;88;22575;-89
2022/06/12 07:51:18;;;;;;;3.22;1.57;;;;;;;23.80;47.62;100571.86;1479402;87;21510;-86
2022/06/12 07:53:46;;;;;;;4.37;1.70;;;;;;;23.93;46.88;100572.70;1469653;87;22558;-87
2022/06/12 07:56:14;;;;;;;6.30;1.72;;;;;;;24.02;47.16;100569.41;1471866;87;21555;-88
2022/06/12 07:58:43;;;;;;;3.60;2.30;;;;;;;24.15;47.09;100565.68;1468665;87;22480;-88
2022/06/12 08:01:11;;;;;;;7.03;1.50;;;;;;;24.24;46.67;100569.68;1466421;88;21583;-85
2022/06/12 08:03:38;;;;;;;4.40;1.40;;;;;;;24.36;46.79;100578.33;1466884;87;21466;-88
2022/06/12 08:06:04;;;;;;;2.60;1.40;;;;;;;24.39;45.33;100583.27;1472018;87;22226;-91
2022/06/12 08:08:31;;;;;;;49.38;3.65;;;;;;;24.39;45.51;100578.67;1487772;87;21538;-89
2022/06/12 08:10:57;;;;;;;2.60;1.40;;;;;;;24.48;46.93;100577.83;1464587;88;23048;-88
2022/06/12 08:13:24;;;;;;;3.67;1.70;;;;;;;24.48;46.04;100571.88;1463240;88;21452;-88
2022/06/12 08:15:52;;;;;;;2.70;1.82;;;;;;;24.37;46.17;100567.80;1471053;88;22895;-87
2022/06/12 08:18:20;;;;;;;3.80;1.50;;;;;;;24.39;46.94;100575.16;1472771;88;21662;-87
2022/06/12 08:20:52;;;;;;;3.58;1.57;;;;;;;24.53;47.49;100578.77;1464735;88;21488;-89
2022/06/12 08:23:26;;;;;;;4.45;1.65;;;;;;;24.62;45.96;100575.70;1450340;89;21485;-89
2022/06/12 08:26:13;;;;;;;1.85;1.65;;;;;;;24.59;45.77;100577.00;1465921;88;22493;-90
2022/06/12 08:28:50;;;;;;;5.28;1.50;;;;;;;24.58;45.96;100569.95;1446081;88;22376;-89
2022/06/12 08:31:22;;;;;;;3.92;1.90;;;;;;;24.59;45.61;100574.83;1464702;88;22405;-87
2022/06/12 08:33:53;;;;;;;3.42;2.05;;;;;;;24.63;46.54;100575.48;1464623;87;21524;-87
2022/06/12 08:36:21;;;;;;;2.87;1.50;;;;;;;24.76;46.81;100579.27;1464229;87;21515;-88
2022/06/12 08:38:48;;;;;;;6.53;1.65;;;;;;;24.87;45.70;100578.15;1466432;87;21620;-86
2022/06/12 08:41:33;;;;;;;5.15;1.70;;;;;;;24.89;45.76;100580.09;1462262;87;21739;-82
2022/06/12 08:44:20;;;;;;;6.12;1.75;;;;;;;24.73;46.11;100587.87;1463706;87;21599;-82
2022/06/12 08:47:15;;;;;;;3.20;1.27;;;;;;;24.96;46.25;100578.06;1464352;87;21546;-83
2022/06/12 08:50:13;;;;;;;6.72;1.50;;;;;;;25.19;45.52;100574.50;1464533;87;21715;-85
2022/06/12 08:52:56;;;;;;;4.50;1.77;;;;;;;25.15;44.88;100584.18;1454937;87;21702;-83
2022/06/12 08:55:43;;;;;;;1.92;1.35;;;;;;;25.23;44.77;100578.89;1468258;87;21546;-82
2022/06/12 08:58:33;;;;;;;3.17;1.50;;;;;;;25.40;45.59;100579.23;1475232;86;21456;-83
2022/06/12 09:01:00;;;;;;;2.55;1.77;;;;;;;25.51;43.95;100577.55;1465662;87;21627;-82
2022/06/12 09:03:31;;;;;;;5.67;1.70;;;;;;;25.41;44.62;100574.66;1458639;87;22493;-81
2022/06/12 09:06:27;;;;;;;6.37;1.67;;;;;;;25.50;44.79;100574.55;1414197;90;21503;-83
2022/06/12 09:09:22;;;;;;;5.37;1.70;;;;;;;25.75;44.89;100577.42;1465683;87;22098;-82
2022/06/12 09:12:11;;;;;;;2.42;1.67;;;;;;;25.66;43.55;100571.57;1466640;87;22868;-83
2022/06/12 09:15:10;;;;;;;2.45;1.22;;;;;;;25.38;42.74;100572.44;1452059;88;23773;-84
2022/06/12 09:18:04;;;;;;;1.82;1.47;;;;;;;25.59;43.72;100570.92;1460700;87;21435;-84
2022/06/12 09:20:44;;;;;;;5.05;1.60;;;;;;;25.66;43.53;100576.48;1412130;90;21606;-83
2022/06/12 09:23:31;;;;;;;3.98;1.55;;;;;;;25.63;43.58;100565.28;1462030;87;21516;-84
2022/06/12 09:26:12;;;;;;;7.47;1.75;;;;;;;25.80;43.38;100570.73;1455646;88;21612;-84
2022/06/12 09:29:16;;;;;;;4.22;1.57;;;;;;;25.95;43.62;100579.18;1464892;87;22507;-88
2022/06/12 09:31:53;;;;;;;4.42;1.55;;;;;;;26.29;43.83;100575.08;1425408;88;21568;-85
2022/06/12 09:34:36;;;;;;;8.53;1.85;;;;;;;26.47;42.29;100578.91;1460544;87;21841;-88
2022/06/12 09:40:40;;;;;;;4.58;1.75;;;;;;;26.40;42.28;100571.45;1462709;87;21634;-91
2022/06/12 09:43:24;;;;;;;3.08;1.40;;;;;;;26.52;42.19;100573.55;1460752;87;21524;-93
2022/06/12 09:46:17;;;;;;;1.50;1.10;;;;;;;26.51;42.25;100569.20;1473029;87;22113;-93
2022/06/12 09:49:11;;;;;;;29.45;4.08;;;;;;;26.53;42.36;100571.14;1474396;87;21589;-92
2022/06/12 09:51:43;;;;;;;2.70;1.40;;;;;;;26.64;41.87;100569.91;1452378;87;21540;-91
2022/06/12 09:54:26;;;;;;;4.17;1.52;;;;;;;26.90;41.59;100565.13;1466917;87;21554;-95
2022/06/12 09:56:58;;;;;;;2.17;1.55;;;;;;;26.95;41.62;100555.66;1409638;91;21554;-94
2022/06/12 09:59:39;;;;;;;2.95;1.55;;;;;;;26.83;40.59;100554.16;1392263;93;21524;-90
2022/06/12 10:02:16;;;;;;;5.65;1.70;;;;;;;26.87;41.45;100552.02;1390415;92;21580;-96
2022/06/12 10:04:51;;;;;;;5.35;1.95;;;;;;;26.93;40.80;100552.40;1404726;91;21607;-92
2022/06/12 10:07:32;;;;;;;2.30;1.27;;;;;;;26.92;40.50;100550.73;1416582;91;22545;-89
2022/06/12 10:10:22;;;;;;;3.33;1.57;;;;;;;26.83;41.28;100544.11;1404452;91;21644;-92
2022/06/12 10:12:54;;;;;;;3.15;1.52;;;;;;;26.82;40.77;100550.62;1406272;91;21531;-90
2022/06/12 10:15:34;;;;;;;2.33;1.50;;;;;;;27.13;41.67;100546.90;1406828;91;21784;-93
2022/06/12 10:18:12;;;;;;;4.62;1.30;;;;;;;27.36;40.48;100540.38;1409079;91;21568;-92
2022/06/12 10:20:46;;;;;;;3.90;1.40;;;;;;;27.36;39.81;100531.72;1410277;91;21757;-96
2022/06/12 10:23:12;;;;;;;3.65;1.30;;;;;;;27.40;40.63;100537.45;1403678;91;21936;-93
2022/06/12 10:25:52;;;;;;;1.52;1.27;;;;;;;27.61;40.50;100533.02;1409424;91;21627;-90
2022/06/12 10:28:27;;;;;;;2.87;1.37;;;;;;;27.88;40.28;100531.13;1365832;94;22604;-93
2022/06/12 10:31:14;;;;;;;2.25;1.45;;;;;;;28.11;40.12;100532.66;1363092;94;21956;-95
2022/06/12 10:33:51;;;;;;;3.62;1.40;;;;;;;28.33;39.84;100531.14;1437326;87;21493;-92
2022/06/12 10:36:23;;;;;;;7.70;2.20;;;;;;;28.23;37.99;100528.92;1465604;87;21538;-92
2022/06/12 10:38:50;;;;;;;3.05;1.37;;;;;;;28.20;37.44;100537.06;1475326;87;21554;-95
2022/06/12 10:41:28;;;;;;;2.65;1.20;;;;;;;28.00;37.73;100526.86;1476658;87;21577;-94
2022/06/12 10:43:56;;;;;;;3.35;1.20;;;;;;;28.05;37.80;100527.41;1456854;87;21434;-95
2022/06/12 10:46:31;;;;;;;4.40;1.47;;;;;;;28.12;37.71;100526.66;1435447;87;21419;-93
2022/06/12 10:49:22;;;;;;;4.62;1.30;;;;;;;27.97;35.99;100527.38;1469337;87;21435;-90
2022/06/12 10:51:50;;;;;;;2.33;1.52;;;;;;;28.24;38.18;100519.66;1465728;87;21501;-92
2022/06/12 10:54:23;;;;;;;2.90;1.52;;;;;;;28.52;38.17;100529.39;1512090;87;21528;-93
2022/06/12 10:57:40;;;;;;;4.15;1.40;;;;;;;28.61;37.01;100514.18;1478119;86;21518;-92
2022/06/12 11:00:19;;;;;;;4.72;1.82;;;;;;;28.76;37.26;100525.13;1494554;86;22561;-93
2022/06/12 11:03:09;;;;;;;2.52;1.42;;;;;;;28.92;36.96;100526.02;1449339;87;21538;-96
2022/06/12 11:05:54;;;;;;;;;;;;;;;28.88;35.99;100510.47;1463628;87;22618;-90
2022/06/12 11:08:59;;;;;;;1.65;1.35;;;;;;;28.43;36.30;100509.20;1461673;87;20320;-93
2022/06/12 11:12:04;;;;;;;2.08;1.40;;;;;;;28.50;36.95;100507.86;1460765;87;21554;-93
2022/06/12 11:14:42;;;;;;;4.58;1.47;;;;;;;28.30;36.10;100510.45;1460673;88;21544;-92
2022/06/12 11:17:41;;;;;;;2.17;1.30;;;;;;;28.39;36.74;100505.32;1472331;87;21500;-92
2022/06/12 11:20:48;;;;;;;5.87;1.60;;;;;;;28.32;36.00;100494.69;1461704;88;22537;-92
2022/06/12 11:23:54;;;;;;;2.90;1.52;;;;;;;28.23;36.18;100499.80;1466693;87;21576;-95
2022/06/12 11:26:50;;;;;;;8.90;1.15;;;;;;;28.54;37.22;100497.25;1475157;87;22491;-93
2022/06/12 11:29:41;;;;;;;2.98;1.40;;;;;;;28.68;36.30;100487.51;1455569;87;22413;-90
2022/06/12 11:32:34;;;;;;;1.27;1.05;;;;;;;28.59;36.23;100487.75;1475262;88;21589;-92
2022/06/12 11:35:28;;;;;;;4.85;1.30;;;;;;;28.79;36.47;100485.66;1460821;88;22375;-93
2022/06/12 11:38:14;;;;;;;6.12;1.50;;;;;;;28.93;36.39;100482.70;1469750;88;21740;-94
2022/06/12 11:41:06;;;;;;;4.37;1.90;;;;;;;29.26;36.98;100479.80;1470123;87;21665;-88
2022/06/12 11:43:49;;;;;;;3.15;1.62;;;;;;;29.33;35.22;100487.17;1464568;87;21677;-91
2022/06/12 11:46:32;;;;;;;2.52;1.42;;;;;;;29.20;35.18;100477.09;1431733;88;21729;-93
2022/06/12 11:49:33;;;;;;;4.45;1.60;;;;;;;28.94;34.96;100476.70;1467799;87;22090;-92
2022/06/12 11:52:29;;;;;;;3.90;1.52;;;;;;;29.06;35.67;100480.05;1465492;87;22507;-88
2022/06/12 11:55:15;;;;;;;1.57;1.30;;;;;;;29.08;34.45;100477.05;1416685;89;21516;-90
2022/06/12 11:58:13;;;;;;;1.92;1.55;;;;;;;28.85;34.36;100478.31;1392880;90;21679;-91
2022/06/12 12:00:54;;;;;;;3.45;1.77;;;;;;;28.85;34.66;100471.51;1458859;87;21561;-91
2022/06/12 12:03:44;;;;;;;1.70;1.30;;;;;;;28.67;35.05;100476.36;1463909;87;21473;-89
2022/06/12 12:06:57;;;;;;;5.00;1.30;;;;;;;28.88;35.44;100460.08;1471180;86;21471;-90
2022/06/12 12:10:05;;;;;;;1.85;1.32;;;;;;;29.05;35.69;100467.50;1457292;87;23355;-88
2022/06/12 12:12:37;;;;;;;5.95;2.15;;;;;;;29.16;34.21;100469.16;1466137;87;21471;-91
2022/06/12 12:15:09;;;;;;;5.03;1.50;;;;;;;29.08;33.72;100469.69;1511397;87;21465;-89
2022/06/12 12:17:43;;;;;;;4.83;1.30;;;;;;;29.03;33.50;100469.67;1412005;90;21732;-91
2022/06/12 12:20:34;;;;;;;4.45;1.20;;;;;;;29.14;34.52;100454.98;1407475;90;21420;-91
2022/06/12 12:23:27;;;;;;;2.85;1.40;;;;;;;29.19;34.01;100452.27;1425075;87;21669;-95
2022/06/12 12:26:37;;;;;;;2.40;1.30;;;;;;;29.35;34.16;100448.20;1409701;87;22522;-91